createdAt,value
2022-09-09T00:02:03.042Z,3.10
2022-09-09T00:04:41.006Z,3.17
2022-09-09T00:07:41.391Z,2.80
2022-09-09T00:10:34.935Z,2.72
2022-09-09T00:13:33.781Z,2.80
2022-09-09T00:16:20.517Z,3.05
2022-09-09T00:19:28.071Z,2.75
2022-09-09T00:22:05.392Z,2.72
2022-09-09T00:24:40.048Z,2.40
2022-09-09T00:27:17.176Z,2.80
2022-09-09T00:29:56.963Z,2.55
2022-09-09T00:32:29.074Z,3.00
2022-09-09T00:35:24.501Z,2.67
2022-09-09T00:37:57.224Z,2.77
2022-09-09T00:40:38.635Z,3.10
2022-09-09T00:43:33.296Z,2.60
2022-09-09T00:46:24.827Z,2.70
2022-09-09T00:49:08.304Z,2.60
2022-09-09T00:52:11.205Z,2.92
2022-09-09T00:55:01.082Z,2.50
2022-09-09T00:57:35.496Z,2.70
2022-09-09T01:00:34.378Z,2.60
2022-09-09T01:03:39.662Z,2.80
2022-09-09T01:06:33.415Z,2.83
2022-09-09T01:09:21.954Z,2.80
2022-09-09T01:12:18.257Z,2.50
2022-09-09T01:14:57.117Z,2.77
2022-09-09T01:17:32.235Z,2.60
2022-09-09T01:20:37.818Z,2.55
2022-09-09T01:23:24.699Z,2.42
2022-09-09T01:26:26.363Z,2.58
2022-09-09T01:28:56.647Z,2.20
2022-09-09T01:31:34.034Z,2.30
2022-09-09T01:34:04.266Z,2.40
2022-09-09T01:36:52.051Z,2.40
2022-09-09T01:41:55.398Z,2.60
2022-09-09T01:44:25.710Z,2.33
2022-09-09T01:46:54.724Z,2.20
2022-09-09T01:49:25.005Z,2.22
2022-09-09T01:51:56.120Z,2.20
2022-09-09T01:54:32.177Z,2.08
2022-09-09T01:57:28.559Z,2.70
2022-09-09T02:00:05.697Z,2.10
2022-09-09T02:02:54.060Z,2.15
2022-09-09T02:05:44.989Z,2.10
2022-09-09T02:08:30.226Z,2.50
2022-09-09T02:11:25.684Z,2.10
2022-09-09T02:14:04.181Z,2.15
2022-09-09T02:19:33.618Z,2.20
2022-09-09T02:22:10.605Z,2.90
2022-09-09T02:24:40.924Z,2.65
2022-09-09T02:27:13.116Z,2.30
2022-09-09T02:29:43.546Z,2.30
2022-09-09T02:32:23.009Z,2.45
2022-09-09T02:34:58.665Z,2.50
2022-09-09T02:37:34.561Z,2.22
2022-09-09T02:40:08.250Z,2.55
2022-09-09T02:42:45.092Z,2.58
2022-09-09T02:45:19.591Z,2.35
2022-09-09T02:48:11.549Z,2.30
2022-09-09T02:50:46.515Z,2.52
2022-09-09T02:53:21.396Z,2.62
2022-09-09T02:55:58.344Z,2.37
2022-09-09T02:58:29.698Z,2.17
2022-09-09T03:01:03.577Z,2.67
2022-09-09T03:03:34.201Z,2.30
2022-09-09T03:06:06.481Z,2.55
2022-09-09T03:08:35.853Z,2.20
2022-09-09T03:11:05.253Z,2.67
2022-09-09T03:13:36.659Z,2.40
2022-09-09T03:16:08.091Z,2.65
2022-09-09T03:18:39.586Z,2.42
2022-09-09T03:21:09.511Z,2.62
2022-09-09T03:23:40.953Z,2.35
2022-09-09T03:26:10.983Z,2.40
2022-09-09T03:28:47.317Z,2.37
2022-09-09T03:31:20.106Z,2.92
2022-09-09T03:33:50.554Z,2.67
2022-09-09T03:36:20.424Z,2.50
2022-09-09T03:38:51.466Z,2.72
2022-09-09T03:41:23.056Z,2.30
2022-09-09T03:43:55.635Z,3.05
2022-09-09T03:46:26.795Z,2.67
2022-09-09T03:48:56.222Z,2.40
2022-09-09T03:51:26.017Z,2.30
2022-09-09T03:53:58.769Z,2.40
2022-09-09T03:56:35.071Z,2.40
2022-09-09T03:59:05.696Z,2.12
2022-09-09T04:01:35.531Z,2.67
2022-09-09T04:04:04.457Z,2.85
2022-09-09T04:06:34.015Z,2.25
2022-09-09T04:09:04.410Z,2.33
2022-09-09T04:11:34.627Z,2.40
2022-09-09T04:14:05.843Z,2.72
2022-09-09T04:16:38.720Z,2.83
2022-09-09T04:19:08.540Z,3.12
2022-09-09T04:21:37.906Z,2.58
2022-09-09T04:24:08.392Z,2.67
2022-09-09T04:26:38.474Z,2.72
2022-09-09T04:29:08.397Z,3.60
2022-09-09T04:31:41.341Z,2.60
2022-09-09T04:34:11.640Z,2.50
2022-09-09T04:36:41.202Z,2.80
2022-09-09T04:39:12.524Z,3.00
2022-09-09T04:41:47.878Z,2.90
2022-09-09T04:44:18.084Z,2.40
2022-09-09T04:46:47.515Z,2.77
2022-09-09T04:49:16.739Z,2.50
2022-09-09T04:51:47.609Z,2.77
2022-09-09T04:54:17.658Z,2.62
2022-09-09T04:56:47.860Z,2.83
2022-09-09T04:59:16.605Z,2.60
2022-09-09T05:01:48.042Z,2.72
2022-09-09T05:04:17.567Z,2.72
2022-09-09T05:06:46.636Z,2.60
2022-09-09T05:09:16.642Z,2.37
2022-09-09T05:11:47.143Z,2.65
2022-09-09T05:14:22.161Z,2.85
2022-09-09T05:16:52.106Z,2.83
2022-09-09T05:19:21.623Z,2.92
2022-09-09T05:21:52.087Z,2.58
2022-09-09T05:24:24.339Z,3.15
2022-09-09T05:26:57.532Z,2.75
2022-09-09T05:29:27.327Z,3.20
2022-09-09T05:31:58.536Z,2.70
2022-09-09T05:34:28.270Z,2.62
2022-09-09T05:36:58.021Z,3.00
2022-09-09T05:39:28.500Z,3.67
2022-09-09T05:41:58.734Z,3.90
2022-09-09T05:44:28.437Z,4.35
2022-09-09T05:46:58.883Z,3.77
2022-09-09T05:49:28.130Z,3.33
2022-09-09T05:51:58.524Z,3.00
2022-09-09T05:54:28.764Z,2.87
2022-09-09T05:57:00.111Z,3.35
2022-09-09T05:59:30.744Z,3.17
2022-09-09T06:02:01.096Z,3.20
2022-09-09T06:04:33.340Z,3.02
2022-09-09T06:07:03.399Z,3.02
2022-09-09T06:09:33.042Z,4.05
2022-09-09T06:12:03.715Z,3.60
2022-09-09T06:14:37.984Z,3.65
2022-09-09T06:17:07.942Z,3.10
2022-09-09T06:19:39.069Z,3.00
2022-09-09T06:22:11.480Z,3.22
2022-09-09T06:24:41.321Z,2.98
2022-09-09T06:27:11.739Z,3.20
2022-09-09T06:29:42.163Z,3.12
2022-09-09T06:32:11.731Z,3.20
2022-09-09T06:34:41.470Z,3.45
2022-09-09T06:37:11.334Z,3.25
2022-09-09T06:39:43.983Z,3.05
2022-09-09T06:42:15.456Z,3.00
2022-09-09T06:44:48.198Z,3.22
2022-09-09T06:47:30.795Z,3.37
2022-09-09T06:50:00.666Z,3.00
2022-09-09T06:52:29.869Z,3.10
2022-09-09T06:54:59.385Z,2.85
2022-09-09T06:57:43.904Z,3.10
2022-09-09T06:59:59.368Z,2.83
2022-09-09T07:02:29.764Z,2.95
2022-09-09T07:05:01.261Z,2.87
2022-09-09T07:07:31.478Z,4.60
2022-09-09T07:10:00.983Z,3.22
2022-09-09T07:12:33.202Z,2.92
2022-09-09T07:15:02.766Z,2.60
2022-09-09T07:17:32.528Z,2.20
2022-09-09T07:20:03.448Z,2.33
2022-09-09T07:22:34.293Z,2.75
2022-09-09T07:25:06.225Z,2.40
2022-09-09T07:27:37.840Z,3.00
2022-09-09T07:30:10.329Z,2.70
2022-09-09T07:32:40.775Z,2.17
2022-09-09T07:35:10.469Z,2.02
2022-09-09T07:37:39.686Z,2.10
2022-09-09T07:40:11.279Z,2.08
2022-09-09T07:42:42.640Z,2.00
2022-09-09T07:45:12.496Z,1.95
2022-09-09T07:47:43.215Z,2.27
2022-09-09T07:50:12.823Z,1.90
2022-09-09T07:52:42.046Z,1.72
2022-09-09T07:55:11.991Z,1.60
2022-09-09T07:57:44.255Z,1.80
2022-09-09T08:00:15.705Z,1.90
2022-09-09T08:02:47.018Z,1.80
2022-09-09T08:05:17.426Z,1.65
2022-09-09T08:07:48.125Z,1.70
2022-09-09T08:10:18.774Z,1.55
2022-09-09T08:13:14.932Z,2.80
2022-09-09T08:15:46.515Z,2.25
2022-09-09T08:18:15.644Z,2.10
2022-09-09T08:20:45.344Z,2.22
2022-09-09T08:23:15.619Z,1.87
2022-09-09T08:25:46.246Z,1.42
2022-09-09T08:28:15.901Z,1.37
2022-09-09T08:30:44.818Z,1.42
2022-09-09T08:33:13.510Z,1.50
2022-09-09T08:35:53.730Z,1.60
2022-09-09T08:38:22.625Z,1.65
2022-09-09T08:40:54.747Z,1.75
2022-09-09T08:43:23.884Z,3.55
2022-09-09T08:46:10.136Z,1.72
2022-09-09T08:48:53.555Z,1.27
2022-09-09T08:51:22.848Z,1.70
2022-09-09T08:53:52.911Z,1.85
2022-09-09T08:56:24.977Z,1.87
2022-09-09T08:58:58.058Z,1.42
2022-09-09T09:02:18.531Z,2.30
2022-09-09T09:04:54.680Z,1.30
2022-09-09T09:07:57.151Z,1.40
2022-09-09T09:10:52.218Z,1.45
2022-09-09T09:13:48.065Z,1.50
2022-09-09T09:16:29.404Z,1.77
2022-09-09T09:18:58.245Z,1.95
2022-09-09T09:21:48.552Z,1.80
2022-09-09T09:24:24.130Z,1.50
2022-09-09T09:26:53.652Z,2.10
2022-09-09T09:29:22.407Z,1.40
2022-09-09T09:31:57.842Z,1.50
2022-09-09T09:34:31.254Z,1.52
2022-09-09T09:37:03.919Z,1.67
2022-09-09T09:42:16.373Z,2.12
2022-09-09T09:44:47.373Z,5.03
2022-09-09T09:47:22.439Z,2.65
2022-09-09T09:49:59.306Z,1.40
2022-09-09T09:52:30.727Z,1.30
2022-09-09T09:55:07.295Z,2.55
2022-09-09T09:57:33.733Z,4.55
2022-09-09T10:00:18.259Z,2.10
2022-09-09T10:02:49.152Z,2.85
2022-09-09T10:05:31.557Z,2.00
2022-09-09T10:08:12.132Z,2.08
2022-09-09T10:11:12.142Z,2.30
2022-09-09T10:14:15.513Z,1.60
2022-09-09T10:16:53.667Z,1.98
2022-09-09T10:19:32.192Z,1.67
2022-09-09T10:22:26.907Z,1.57
2022-09-09T10:25:24.862Z,2.00
2022-09-09T10:28:10.976Z,1.70
2022-09-09T10:31:10.554Z,1.42
2022-09-09T10:33:58.877Z,1.50
2022-09-09T10:36:28.589Z,1.52
2022-09-09T10:39:06.344Z,1.82
2022-09-09T10:41:50.081Z,2.27
2022-09-09T10:44:42.577Z,1.60
2022-09-09T10:47:50.802Z,1.65
2022-09-09T10:51:04.698Z,1.80
2022-09-09T10:53:37.633Z,1.70
2022-09-09T10:56:13.114Z,2.33
2022-09-09T10:58:49.691Z,1.40
2022-09-09T11:01:25.773Z,1.45
2022-09-09T11:04:03.100Z,1.62
2022-09-09T11:06:40.754Z,1.45
2022-09-09T11:09:15.299Z,1.20
2022-09-09T11:11:56.626Z,1.80
2022-09-09T11:15:07.422Z,2.00
2022-09-09T11:17:47.839Z,1.40
2022-09-09T11:20:18.625Z,1.52
2022-09-09T11:22:52.922Z,1.50
2022-09-09T11:25:33.022Z,1.55
2022-09-09T11:28:32.128Z,1.62
2022-09-09T11:31:37.704Z,1.52
2022-09-09T11:34:24.328Z,2.00
2022-09-09T11:37:07.354Z,1.62
2022-09-09T11:40:12.140Z,2.02
2022-09-09T11:42:43.480Z,1.50
2022-09-09T11:45:29.501Z,1.67
2022-09-09T11:48:01.535Z,1.55
2022-09-09T11:50:33.770Z,1.82
2022-09-09T11:53:21.680Z,1.45
2022-09-09T11:56:10.251Z,1.90
2022-09-09T11:58:46.576Z,1.80
2022-09-09T12:01:45.548Z,3.00
2022-09-09T12:04:29.426Z,1.80
2022-09-09T12:07:27.311Z,2.12
2022-09-09T12:10:22.076Z,1.75
2022-09-09T12:12:51.283Z,1.60
2022-09-09T12:15:29.456Z,1.37
2022-09-09T12:18:03.470Z,1.65
2022-09-09T12:20:38.488Z,1.72
2022-09-09T12:23:27.581Z,1.32
2022-09-09T12:26:16.893Z,1.67
2022-09-09T12:29:14.160Z,1.90
2022-09-09T12:32:09.564Z,1.37
2022-09-09T12:34:46.098Z,1.62
2022-09-09T12:37:34.470Z,2.27
2022-09-09T12:40:25.358Z,2.00
2022-09-09T12:42:56.894Z,1.87
2022-09-09T12:45:28.308Z,1.67
2022-09-09T12:48:06.209Z,1.70
2022-09-09T12:50:38.167Z,1.20
2022-09-09T12:53:26.182Z,1.50
2022-09-09T12:56:07.305Z,1.70
2022-09-09T12:58:37.909Z,1.60
2022-09-09T13:01:10.330Z,1.87
2022-09-09T13:03:46.097Z,1.85
2022-09-09T13:06:28.586Z,1.82
2022-09-09T13:08:59.443Z,2.17
2022-09-09T13:11:33.444Z,1.90
2022-09-09T13:14:02.313Z,1.77
2022-09-09T13:16:39.098Z,1.70
2022-09-09T13:19:18.699Z,2.33
2022-09-09T13:21:48.779Z,2.52
2022-09-09T13:24:33.766Z,1.30
2022-09-09T13:27:22.464Z,1.52
2022-09-09T13:29:56.577Z,1.72
2022-09-09T13:32:27.699Z,1.67
2022-09-09T13:34:58.791Z,1.70
2022-09-09T13:37:39.484Z,1.40
2022-09-09T13:40:15.633Z,2.40
2022-09-09T13:42:45.896Z,1.50
2022-09-09T13:45:22.836Z,1.52
2022-09-09T13:47:53.484Z,2.45
2022-09-09T13:50:30.091Z,2.27
2022-09-09T13:53:00.247Z,2.50
2022-09-09T13:55:29.733Z,3.08
2022-09-09T13:58:04.348Z,2.70
2022-09-09T14:00:36.326Z,2.15
2022-09-09T14:03:08.437Z,2.00
2022-09-09T14:05:38.569Z,2.08
2022-09-09T14:08:08.252Z,1.70
2022-09-09T14:10:38.217Z,1.70
2022-09-09T14:13:09.045Z,1.52
2022-09-09T14:15:38.591Z,1.37
2022-09-09T14:18:09.448Z,2.22
2022-09-09T14:20:40.457Z,2.08
2022-09-09T14:23:12.628Z,2.12
2022-09-09T14:25:43.957Z,1.62
2022-09-09T14:28:14.017Z,1.90
2022-09-09T14:30:45.301Z,1.60
2022-09-09T14:33:16.529Z,2.62
2022-09-09T14:35:46.183Z,1.70
2022-09-09T14:38:19.051Z,2.02
2022-09-09T14:40:47.798Z,1.40
2022-09-09T14:43:22.026Z,1.80
2022-09-09T14:45:54.526Z,1.70
2022-09-09T14:48:23.461Z,1.70
2022-09-09T14:50:52.299Z,2.95
2022-09-09T14:53:22.462Z,2.10
2022-09-09T14:55:51.471Z,4.03
2022-09-09T14:58:19.957Z,3.72
2022-09-09T15:00:49.071Z,2.65
2022-09-09T15:03:18.695Z,4.00
2022-09-09T15:05:48.143Z,2.37
2022-09-09T15:08:18.083Z,2.52
2022-09-09T15:10:48.119Z,2.40
2022-09-09T15:13:20.481Z,1.92
2022-09-09T15:15:50.726Z,1.77
2022-09-09T15:18:20.442Z,1.90
2022-09-09T15:20:49.493Z,1.57
2022-09-09T15:23:19.313Z,1.70
2022-09-09T15:25:55.418Z,1.98
2022-09-09T15:28:24.727Z,3.12
2022-09-09T15:30:54.677Z,2.27
2022-09-09T15:33:24.011Z,1.90
2022-09-09T15:35:52.587Z,1.95
2022-09-09T15:38:21.932Z,1.80
2022-09-09T15:40:57.941Z,1.55
2022-09-09T15:43:26.792Z,2.20
2022-09-09T15:45:59.271Z,2.62
2022-09-09T15:48:34.442Z,2.40
2022-09-09T15:51:10.940Z,1.70
2022-09-09T15:53:41.963Z,1.72
2022-09-09T15:56:11.154Z,2.15
2022-09-09T15:58:41.473Z,1.92
2022-09-09T16:01:12.268Z,2.40
2022-09-09T16:03:45.679Z,2.60
2022-09-09T16:06:22.286Z,2.92
2022-09-09T16:08:53.404Z,3.55
2022-09-09T16:11:34.193Z,3.05
2022-09-09T16:14:06.071Z,2.83
2022-09-09T16:16:36.013Z,2.50
2022-09-09T16:19:10.578Z,4.35
2022-09-09T16:21:46.363Z,3.30
2022-09-09T16:24:18.946Z,2.83
2022-09-09T16:26:51.199Z,3.05
2022-09-09T16:29:22.345Z,2.20
2022-09-09T16:31:52.796Z,2.30
2022-09-09T16:34:23.374Z,2.10
2022-09-09T16:36:52.959Z,2.33
2022-09-09T16:39:22.336Z,2.67
2022-09-09T16:41:52.241Z,2.90
2022-09-09T16:44:21.153Z,2.27
2022-09-09T16:46:54.491Z,2.37
2022-09-09T16:49:25.632Z,3.08
2022-09-09T16:51:55.333Z,3.10
2022-09-09T16:54:25.693Z,3.30
2022-09-09T16:56:54.666Z,5.65
2022-09-09T16:59:24.167Z,4.47
2022-09-09T17:01:54.442Z,3.00
2022-09-09T17:04:27.304Z,3.00
2022-09-09T17:07:00.255Z,2.50
2022-09-09T17:09:29.879Z,2.47
2022-09-09T17:12:00.718Z,2.37
2022-09-09T17:14:31.994Z,2.10
2022-09-09T17:17:24.775Z,2.02
2022-09-09T17:19:34.519Z,2.33
2022-09-09T17:22:16.769Z,3.67
2022-09-09T17:24:35.909Z,2.62
2022-09-09T17:27:06.167Z,2.98
2022-09-09T17:29:36.539Z,3.00
2022-09-09T17:32:08.298Z,2.60
2022-09-09T17:34:38.630Z,2.70
2022-09-09T17:37:08.331Z,2.67
2022-09-09T17:39:39.578Z,4.37
2022-09-09T17:42:09.349Z,2.80
2022-09-09T17:44:40.004Z,2.30
2022-09-09T17:47:09.174Z,2.87
2022-09-09T17:49:40.018Z,3.08
2022-09-09T17:52:10.821Z,2.85
2022-09-09T17:54:42.232Z,2.85
2022-09-09T17:57:12.098Z,2.47
2022-09-09T17:59:41.760Z,3.05
2022-09-09T18:02:12.701Z,2.42
2022-09-09T18:04:42.706Z,2.72
2022-09-09T18:07:14.058Z,2.45
2022-09-09T18:09:43.774Z,2.62
2022-09-09T18:12:15.093Z,2.62
2022-09-09T18:14:44.754Z,2.90
2022-09-09T18:17:13.639Z,2.80
2022-09-09T18:19:42.857Z,2.55
2022-09-09T18:22:12.093Z,3.05
2022-09-09T18:24:44.045Z,3.65
2022-09-09T18:27:13.763Z,3.17
2022-09-09T18:29:43.228Z,4.17
2022-09-09T18:32:14.957Z,4.37
2022-09-09T18:34:45.190Z,4.45
2022-09-09T18:37:15.450Z,4.30
2022-09-09T18:39:44.993Z,3.92
2022-09-09T18:42:14.731Z,4.30
2022-09-09T18:44:44.460Z,4.15
2022-09-09T18:47:13.881Z,4.05
2022-09-09T18:49:44.358Z,3.95
2022-09-09T18:52:15.226Z,3.17
2022-09-09T18:54:46.117Z,3.10
2022-09-09T18:57:15.717Z,3.15
2022-09-09T18:59:45.517Z,3.37
2022-09-09T19:02:14.465Z,3.05
2022-09-09T19:04:44.843Z,3.17
2022-09-09T19:07:15.532Z,3.17
2022-09-09T19:09:44.685Z,2.85
2022-09-09T19:12:14.128Z,2.70
2022-09-09T19:14:44.558Z,2.70
2022-09-09T19:17:13.617Z,2.80
2022-09-09T19:19:43.439Z,2.77
2022-09-09T19:22:14.122Z,2.60
2022-09-09T19:24:45.369Z,2.77
2022-09-09T19:27:14.065Z,2.72
2022-09-09T19:29:44.366Z,2.70
2022-09-09T19:34:47.964Z,2.37
2022-09-09T19:37:18.616Z,2.47
2022-09-09T19:39:49.526Z,2.60
2022-09-09T19:42:19.869Z,2.60
2022-09-09T19:44:50.805Z,2.45
2022-09-09T19:47:20.486Z,2.40
2022-09-09T19:49:51.399Z,2.30
2022-09-09T19:52:21.239Z,2.33
2022-09-09T19:54:50.483Z,2.50
2022-09-09T19:57:20.389Z,2.37
2022-09-09T19:59:49.835Z,2.50
2022-09-09T20:02:21.306Z,2.00
2022-09-09T20:04:50.977Z,2.20
2022-09-09T20:07:23.175Z,2.60
2022-09-09T20:09:54.482Z,2.50
2022-09-09T20:12:24.379Z,2.52
2022-09-09T20:14:54.913Z,2.05
2022-09-09T20:17:26.036Z,2.42
2022-09-09T20:19:55.492Z,2.58
2022-09-09T20:22:26.269Z,2.27
2022-09-09T20:24:55.203Z,2.40
2022-09-09T20:27:24.685Z,2.12
2022-09-09T20:29:53.394Z,2.20
2022-09-09T20:32:23.209Z,2.65
2022-09-09T20:34:54.440Z,2.22
2022-09-09T20:37:23.674Z,2.40
2022-09-09T20:39:55.143Z,2.52
2022-09-09T20:42:24.631Z,2.40
2022-09-09T20:44:53.561Z,2.50
2022-09-09T20:47:23.561Z,2.40
2022-09-09T20:49:53.245Z,2.12
2022-09-09T20:52:23.469Z,2.55
2022-09-09T20:54:53.973Z,2.27
2022-09-09T20:57:24.809Z,2.22
2022-09-09T20:59:54.839Z,2.58
2022-09-09T21:02:24.689Z,2.55
2022-09-09T21:04:54.226Z,2.70
2022-09-09T21:07:22.930Z,2.98
2022-09-09T21:09:52.336Z,2.58
2022-09-09T21:12:23.237Z,2.70
2022-09-09T21:14:53.522Z,2.80
2022-09-09T21:17:23.479Z,3.08
2022-09-09T21:19:56.376Z,2.47
2022-09-09T21:22:23.285Z,2.98
2022-09-09T21:24:52.995Z,2.80
2022-09-09T21:27:23.385Z,2.40
2022-09-09T21:29:53.049Z,2.50
2022-09-09T21:32:22.432Z,2.60
2022-09-09T21:34:52.913Z,2.80
2022-09-09T21:37:26.957Z,2.87
2022-09-09T21:39:56.111Z,2.60
2022-09-09T21:42:25.353Z,2.98
2022-09-09T21:44:55.524Z,2.60
2022-09-09T21:47:24.542Z,2.72
2022-09-09T21:49:54.413Z,2.45
2022-09-09T21:52:24.086Z,3.08
2022-09-09T21:54:53.134Z,2.52
2022-09-09T21:57:24.969Z,2.58
2022-09-09T21:59:53.843Z,2.60
2022-09-09T22:02:24.124Z,2.37
2022-09-09T22:04:53.727Z,2.87
2022-09-09T22:07:22.708Z,3.02
2022-09-09T22:09:51.731Z,3.12
2022-09-09T22:12:21.684Z,2.35
2022-09-09T22:14:53.128Z,2.65
2022-09-09T22:17:24.396Z,3.10
2022-09-09T22:19:53.536Z,2.40
2022-09-09T22:22:23.212Z,2.40
2022-09-09T22:24:52.867Z,2.90
2022-09-09T22:27:22.257Z,2.70
2022-09-09T22:29:52.842Z,3.08
2022-09-09T22:32:22.335Z,2.70
2022-09-09T22:34:53.157Z,2.47
2022-09-09T22:37:22.757Z,2.70
2022-09-09T22:39:52.561Z,2.50
2022-09-09T22:42:22.450Z,2.80
2022-09-09T22:44:53.046Z,2.55
2022-09-09T22:47:21.927Z,2.90
2022-09-09T22:49:52.176Z,2.55
2022-09-09T22:52:22.032Z,3.17
2022-09-09T22:54:51.972Z,2.83
2022-09-09T22:57:22.042Z,2.83
2022-09-09T22:59:51.262Z,2.65
2022-09-09T23:02:21.705Z,2.77
2022-09-09T23:04:52.343Z,2.55
2022-09-09T23:07:23.228Z,2.90
2022-09-09T23:09:53.776Z,2.50
2022-09-09T23:12:25.106Z,2.70
2022-09-09T23:14:56.511Z,3.02
2022-09-09T23:17:26.316Z,2.67
2022-09-09T23:19:58.069Z,2.58
2022-09-09T23:22:27.948Z,2.55
2022-09-09T23:24:57.581Z,2.75
2022-09-09T23:27:27.594Z,2.50
2022-09-09T23:29:57.226Z,2.52
2022-09-09T23:32:26.826Z,2.47
2022-09-09T23:34:56.413Z,2.50
2022-09-09T23:37:26.804Z,2.40
2022-09-09T23:39:56.524Z,2.55
2022-09-09T23:42:26.839Z,2.35
2022-09-09T23:44:57.260Z,2.60
2022-09-09T23:47:26.007Z,2.58
2022-09-09T23:49:55.646Z,2.30
2022-09-09T23:52:26.336Z,2.50
2022-09-09T23:54:56.988Z,2.20
2022-09-09T23:57:26.771Z,2.25
2022-09-09T23:59:56.464Z,2.58
